sensor_id;sensor_type;location;lat;lon;timestamp;pressure;altitude;pressure_sealevel;temperature;humidity
74966;BME280;63522;47.928;21.042;2022-10-10T00:00:43;101265.80;;;24.78;49.63
74966;BME280;63522;47.928;21.042;2022-10-10T00:03:09;101267.14;;;24.80;49.67
74966;BME280;63522;47.928;21.042;2022-10-10T00:05:38;101263.04;;;24.79;49.69
74966;BME280;63522;47.928;21.042;2022-10-10T00:08:05;101266.73;;;24.80;49.59
74966;BME280;63522;47.928;21.042;2022-10-10T00:10:31;101265.27;;;24.80;49.59
74966;BME280;63522;47.928;21.042;2022-10-10T00:12:56;101268.13;;;24.80;49.61
74966;BME280;63522;47.928;21.042;2022-10-10T00:15:22;101268.85;;;24.81;49.58
74966;BME280;63522;47.928;21.042;2022-10-10T00:17:48;101270.48;;;24.81;49.66
74966;BME280;63522;47.928;21.042;2022-10-10T00:20:16;101266.59;;;24.81;49.59
74966;BME280;63522;47.928;21.042;2022-10-10T00:22:41;101270.40;;;24.81;49.64
74966;BME280;63522;47.928;21.042;2022-10-10T00:25:08;101271.84;;;24.81;49.67
74966;BME280;63522;47.928;21.042;2022-10-10T00:27:34;101270.58;;;24.81;49.64
74966;BME280;63522;47.928;21.042;2022-10-10T00:30:01;101269.66;;;24.82;49.55
74966;BME280;63522;47.928;21.042;2022-10-10T00:32:26;101269.90;;;24.81;49.62
74966;BME280;63522;47.928;21.042;2022-10-10T00:34:52;101276.29;;;24.81;49.70
74966;BME280;63522;47.928;21.042;2022-10-10T00:37:18;101274.78;;;24.81;49.51
74966;BME280;63522;47.928;21.042;2022-10-10T00:39:43;101266.21;;;24.81;49.66
74966;BME280;63522;47.928;21.042;2022-10-10T00:42:11;101265.63;;;24.82;49.68
74966;BME280;63522;47.928;21.042;2022-10-10T00:44:39;101264.23;;;24.81;49.81
74966;BME280;63522;47.928;21.042;2022-10-10T00:47:05;101259.38;;;24.82;49.51
74966;BME280;63522;47.928;21.042;2022-10-10T00:49:31;101256.86;;;24.82;49.62
74966;BME280;63522;47.928;21.042;2022-10-10T00:51:58;101257.02;;;24.82;49.68
74966;BME280;63522;47.928;21.042;2022-10-10T00:54:25;101258.02;;;24.83;49.68
74966;BME280;63522;47.928;21.042;2022-10-10T00:56:59;101252.55;;;24.83;49.72
74966;BME280;63522;47.928;21.042;2022-10-10T00:59:31;101255.59;;;24.83;49.65
74966;BME280;63522;47.928;21.042;2022-10-10T01:01:58;101257.02;;;24.83;49.78
74966;BME280;63522;47.928;21.042;2022-10-10T01:04:40;101252.41;;;24.84;49.62
74966;BME280;63522;47.928;21.042;2022-10-10T01:07:09;101248.21;;;24.84;49.76
74966;BME280;63522;47.928;21.042;2022-10-10T01:09:36;101242.85;;;24.85;49.67
74966;BME280;63522;47.928;21.042;2022-10-10T01:18:26;101239.09;;;24.86;49.60
74966;BME280;63522;47.928;21.042;2022-10-10T01:27:10;101241.66;;;24.86;49.87
74966;BME280;63522;47.928;21.042;2022-10-10T01:30:05;101231.85;;;24.85;49.73
74966;BME280;63522;47.928;21.042;2022-10-10T01:40:58;101220.48;;;24.86;49.85
74966;BME280;63522;47.928;21.042;2022-10-10T01:43:28;101219.56;;;24.86;49.73
74966;BME280;63522;47.928;21.042;2022-10-10T01:45:54;101208.26;;;24.86;49.72
74966;BME280;63522;47.928;21.042;2022-10-10T01:48:27;101201.36;;;24.86;49.69
74966;BME280;63522;47.928;21.042;2022-10-10T01:51:05;101205.87;;;24.87;49.70
74966;BME280;63522;47.928;21.042;2022-10-10T02:01:35;101217.75;;;24.86;49.93
74966;BME280;63522;47.928;21.042;2022-10-10T02:04:55;101214.73;;;24.87;49.79
74966;BME280;63522;47.928;21.042;2022-10-10T02:07:22;101212.21;;;24.87;49.75
74966;BME280;63522;47.928;21.042;2022-10-10T02:09:51;101216.90;;;24.87;49.79
74966;BME280;63522;47.928;21.042;2022-10-10T02:12:18;101216.21;;;24.87;49.81
74966;BME280;63522;47.928;21.042;2022-10-10T02:14:50;101206.08;;;24.86;49.89
74966;BME280;63522;47.928;21.042;2022-10-10T02:17:19;101205.45;;;24.87;49.79
74966;BME280;63522;47.928;21.042;2022-10-10T02:19:49;101202.34;;;24.87;49.93
74966;BME280;63522;47.928;21.042;2022-10-10T02:22:18;101203.84;;;24.88;49.92
74966;BME280;63522;47.928;21.042;2022-10-10T02:24:45;101200.44;;;24.88;49.92
74966;BME280;63522;47.928;21.042;2022-10-10T02:27:17;101205.45;;;24.88;49.85
74966;BME280;63522;47.928;21.042;2022-10-10T02:29:43;101208.69;;;24.90;49.98
74966;BME280;63522;47.928;21.042;2022-10-10T02:34:46;101206.15;;;24.92;50.68
74966;BME280;63522;47.928;21.042;2022-10-10T02:37:15;101202.88;;;24.93;50.73
74966;BME280;63522;47.928;21.042;2022-10-10T02:39:44;101198.88;;;24.95;50.68
74966;BME280;63522;47.928;21.042;2022-10-10T02:42:13;101195.73;;;24.95;50.84
74966;BME280;63522;47.928;21.042;2022-10-10T02:44:40;101192.54;;;24.97;50.83
74966;BME280;63522;47.928;21.042;2022-10-10T02:47:06;101194.00;;;24.96;50.78
74966;BME280;63522;47.928;21.042;2022-10-10T02:49:33;101196.48;;;24.98;50.77
74966;BME280;63522;47.928;21.042;2022-10-10T02:51:59;101194.28;;;24.97;50.53
74966;BME280;63522;47.928;21.042;2022-10-10T02:54:25;101196.16;;;24.99;50.56
74966;BME280;63522;47.928;21.042;2022-10-10T02:56:51;101193.58;;;24.99;50.60
74966;BME280;63522;47.928;21.042;2022-10-10T02:59:17;101187.52;;;25.00;50.41
74966;BME280;63522;47.928;21.042;2022-10-10T03:01:43;101192.85;;;25.01;50.46
74966;BME280;63522;47.928;21.042;2022-10-10T03:04:09;101191.93;;;25.01;50.29
74966;BME280;63522;47.928;21.042;2022-10-10T03:06:34;101191.48;;;25.02;50.24
74966;BME280;63522;47.928;21.042;2022-10-10T03:09:00;101191.31;;;25.01;50.36
74966;BME280;63522;47.928;21.042;2022-10-10T03:11:25;101193.77;;;25.02;50.30
74966;BME280;63522;47.928;21.042;2022-10-10T03:13:51;101196.64;;;25.03;50.28
74966;BME280;63522;47.928;21.042;2022-10-10T03:16:16;101194.25;;;25.03;50.24
74966;BME280;63522;47.928;21.042;2022-10-10T03:18:41;101192.73;;;25.03;50.04
74966;BME280;63522;47.928;21.042;2022-10-10T03:21:07;101195.65;;;25.03;49.88
74966;BME280;63522;47.928;21.042;2022-10-10T03:23:33;101193.05;;;25.04;50.03
74966;BME280;63522;47.928;21.042;2022-10-10T03:26:00;101195.70;;;25.04;50.01
74966;BME280;63522;47.928;21.042;2022-10-10T03:28:26;101195.67;;;25.04;49.98
74966;BME280;63522;47.928;21.042;2022-10-10T03:30:51;101194.98;;;25.06;49.94
74966;BME280;63522;47.928;21.042;2022-10-10T03:33:17;101194.27;;;25.06;50.11
74966;BME280;63522;47.928;21.042;2022-10-10T03:35:42;101197.98;;;25.07;50.01
74966;BME280;63522;47.928;21.042;2022-10-10T03:38:09;101197.69;;;25.06;50.06
74966;BME280;63522;47.928;21.042;2022-10-10T03:40:41;101200.11;;;25.07;49.95
74966;BME280;63522;47.928;21.042;2022-10-10T03:43:08;101204.61;;;25.08;50.13
74966;BME280;63522;47.928;21.042;2022-10-10T03:45:34;101206.73;;;25.08;49.84
74966;BME280;63522;47.928;21.042;2022-10-10T03:47:59;101200.89;;;25.08;49.91
74966;BME280;63522;47.928;21.042;2022-10-10T03:50:25;101207.41;;;25.09;49.86
74966;BME280;63522;47.928;21.042;2022-10-10T03:52:50;101207.73;;;25.09;49.84
74966;BME280;63522;47.928;21.042;2022-10-10T03:55:16;101210.38;;;25.10;50.06
74966;BME280;63522;47.928;21.042;2022-10-10T03:57:41;101211.52;;;25.10;49.81
74966;BME280;63522;47.928;21.042;2022-10-10T04:00:07;101207.48;;;25.10;49.87
74966;BME280;63522;47.928;21.042;2022-10-10T04:02:33;101207.48;;;25.10;49.92
74966;BME280;63522;47.928;21.042;2022-10-10T04:04:59;101205.53;;;25.11;50.00
74966;BME280;63522;47.928;21.042;2022-10-10T04:07:24;101206.41;;;25.11;49.91
74966;BME280;63522;47.928;21.042;2022-10-10T04:09:49;101206.98;;;25.12;49.83
74966;BME280;63522;47.928;21.042;2022-10-10T04:12:15;101210.06;;;25.12;49.65
74966;BME280;63522;47.928;21.042;2022-10-10T04:14:40;101204.29;;;25.12;49.77
74966;BME280;63522;47.928;21.042;2022-10-10T04:17:06;101206.68;;;25.13;49.82
74966;BME280;63522;47.928;21.042;2022-10-10T04:19:31;101204.23;;;25.12;49.85
74966;BME280;63522;47.928;21.042;2022-10-10T04:21:57;101207.06;;;25.13;49.63
74966;BME280;63522;47.928;21.042;2022-10-10T04:24:22;101205.41;;;25.13;49.75
74966;BME280;63522;47.928;21.042;2022-10-10T04:26:47;101202.99;;;25.14;49.73
74966;BME280;63522;47.928;21.042;2022-10-10T04:29:13;101203.34;;;25.14;49.78
74966;BME280;63522;47.928;21.042;2022-10-10T04:31:38;101202.55;;;25.14;49.80
74966;BME280;63522;47.928;21.042;2022-10-10T04:34:04;101199.53;;;25.15;49.61
74966;BME280;63522;47.928;21.042;2022-10-10T04:36:29;101199.23;;;25.15;49.51
74966;BME280;63522;47.928;21.042;2022-10-10T04:38:54;101194.45;;;25.15;49.51
74966;BME280;63522;47.928;21.042;2022-10-10T04:41:20;101196.02;;;25.16;49.57
74966;BME280;63522;47.928;21.042;2022-10-10T04:43:45;101200.08;;;25.15;49.75
74966;BME280;63522;47.928;21.042;2022-10-10T04:46:11;101199.84;;;25.16;49.58
74966;BME280;63522;47.928;21.042;2022-10-10T04:48:36;101203.80;;;25.16;49.59
74966;BME280;63522;47.928;21.042;2022-10-10T04:51:02;101204.83;;;25.17;49.48
74966;BME280;63522;47.928;21.042;2022-10-10T04:53:27;101203.52;;;25.17;49.48
74966;BME280;63522;47.928;21.042;2022-10-10T04:55:53;101202.33;;;25.18;49.35
74966;BME280;63522;47.928;21.042;2022-10-10T04:58:18;101205.95;;;25.18;49.40
74966;BME280;63522;47.928;21.042;2022-10-10T05:00:44;101203.29;;;25.19;49.52
74966;BME280;63522;47.928;21.042;2022-10-10T05:03:10;101204.34;;;25.19;49.50
74966;BME280;63522;47.928;21.042;2022-10-10T05:05:37;101200.78;;;25.20;49.47
74966;BME280;63522;47.928;21.042;2022-10-10T05:08:04;101198.08;;;25.21;49.51
74966;BME280;63522;47.928;21.042;2022-10-10T05:10:29;101198.55;;;25.22;49.31
74966;BME280;63522;47.928;21.042;2022-10-10T05:12:55;101201.14;;;25.23;49.33
74966;BME280;63522;47.928;21.042;2022-10-10T05:15:20;101198.74;;;25.25;49.80
74966;BME280;63522;47.928;21.042;2022-10-10T05:17:46;101198.77;;;25.26;49.78
74966;BME280;63522;47.928;21.042;2022-10-10T05:20:12;101196.48;;;25.27;49.78
74966;BME280;63522;47.928;21.042;2022-10-10T05:22:37;101198.80;;;25.29;49.58
74966;BME280;63522;47.928;21.042;2022-10-10T05:25:03;101195.79;;;25.30;49.54
74966;BME280;63522;47.928;21.042;2022-10-10T05:27:29;101197.55;;;25.32;49.39
74966;BME280;63522;47.928;21.042;2022-10-10T05:29:54;101199.80;;;25.35;49.42
74966;BME280;63522;47.928;21.042;2022-10-10T05:32:21;101198.31;;;25.37;49.41
74966;BME280;63522;47.928;21.042;2022-10-10T05:34:47;101196.73;;;25.40;49.35
74966;BME280;63522;47.928;21.042;2022-10-10T05:37:13;101197.65;;;25.41;49.43
74966;BME280;63522;47.928;21.042;2022-10-10T05:39:39;101196.08;;;25.44;49.38
74966;BME280;63522;47.928;21.042;2022-10-10T05:42:04;101194.73;;;25.46;49.32
74966;BME280;63522;47.928;21.042;2022-10-10T05:44:30;101196.04;;;25.48;49.45
74966;BME280;63522;47.928;21.042;2022-10-10T05:46:56;101207.20;;;25.51;49.22
74966;BME280;63522;47.928;21.042;2022-10-10T05:49:21;101202.34;;;25.54;49.17
74966;BME280;63522;47.928;21.042;2022-10-10T05:51:47;101198.60;;;25.56;49.05
74966;BME280;63522;47.928;21.042;2022-10-10T05:54:13;101202.73;;;25.58;49.19
74966;BME280;63522;47.928;21.042;2022-10-10T05:56:38;101196.84;;;25.60;49.29
74966;BME280;63522;47.928;21.042;2022-10-10T05:59:04;101196.34;;;25.64;49.21
74966;BME280;63522;47.928;21.042;2022-10-10T06:01:29;101202.09;;;25.66;49.62
74966;BME280;63522;47.928;21.042;2022-10-10T06:03:55;101197.86;;;25.68;50.12
74966;BME280;63522;47.928;21.042;2022-10-10T06:06:21;101198.56;;;25.71;50.69
74966;BME280;63522;47.928;21.042;2022-10-10T06:08:47;101199.67;;;25.72;51.29
74966;BME280;63522;47.928;21.042;2022-10-10T06:11:14;101194.30;;;25.75;51.86
74966;BME280;63522;47.928;21.042;2022-10-10T06:13:45;101200.41;;;25.77;52.40
74966;BME280;63522;47.928;21.042;2022-10-10T06:16:14;101195.46;;;25.79;53.18
74966;BME280;63522;47.928;21.042;2022-10-10T06:18:39;101191.44;;;25.82;53.98
74966;BME280;63522;47.928;21.042;2022-10-10T06:21:06;101191.77;;;25.85;53.96
74966;BME280;63522;47.928;21.042;2022-10-10T06:23:34;101188.84;;;25.88;54.09
74966;BME280;63522;47.928;21.042;2022-10-10T06:26:00;101196.04;;;25.91;54.27
74966;BME280;63522;47.928;21.042;2022-10-10T06:28:25;101194.27;;;25.93;54.63
74966;BME280;63522;47.928;21.042;2022-10-10T06:30:51;101196.07;;;25.97;54.75
74966;BME280;63522;47.928;21.042;2022-10-10T06:33:17;101201.01;;;26.00;54.27
74966;BME280;63522;47.928;21.042;2022-10-10T06:35:47;101194.10;;;26.01;54.48
74966;BME280;63522;47.928;21.042;2022-10-10T06:38:14;101196.45;;;26.04;54.74
74966;BME280;63522;47.928;21.042;2022-10-10T06:40:41;101196.95;;;26.08;54.64
74966;BME280;63522;47.928;21.042;2022-10-10T06:43:08;101201.82;;;26.10;54.50
74966;BME280;63522;47.928;21.042;2022-10-10T06:45:41;101200.63;;;26.13;54.53
74966;BME280;63522;47.928;21.042;2022-10-10T06:48:07;101203.16;;;26.16;54.85
74966;BME280;63522;47.928;21.042;2022-10-10T06:50:33;101208.22;;;26.19;55.12
74966;BME280;63522;47.928;21.042;2022-10-10T06:52:59;101214.21;;;26.22;55.05
74966;BME280;63522;47.928;21.042;2022-10-10T06:55:25;101215.05;;;26.24;55.23
74966;BME280;63522;47.928;21.042;2022-10-10T06:57:50;101213.46;;;26.27;55.22
74966;BME280;63522;47.928;21.042;2022-10-10T07:00:16;101213.45;;;26.29;55.24
74966;BME280;63522;47.928;21.042;2022-10-10T07:02:42;101213.34;;;26.33;54.86
74966;BME280;63522;47.928;21.042;2022-10-10T07:05:12;101213.11;;;26.36;55.19
74966;BME280;63522;47.928;21.042;2022-10-10T07:07:41;101219.88;;;26.41;55.36
74966;BME280;63522;47.928;21.042;2022-10-10T07:10:09;101216.66;;;26.45;55.33
74966;BME280;63522;47.928;21.042;2022-10-10T07:12:34;101215.08;;;26.50;55.45
74966;BME280;63522;47.928;21.042;2022-10-10T07:15:00;101215.65;;;26.54;55.19
74966;BME280;63522;47.928;21.042;2022-10-10T07:17:25;101214.52;;;26.59;55.03
74966;BME280;63522;47.928;21.042;2022-10-10T07:19:51;101214.50;;;26.64;54.85
74966;BME280;63522;47.928;21.042;2022-10-10T07:22:16;101216.07;;;26.68;55.02
74966;BME280;63522;47.928;21.042;2022-10-10T07:24:42;101217.31;;;26.71;54.69
74966;BME280;63522;47.928;21.042;2022-10-10T07:27:07;101219.00;;;26.73;54.72
74966;BME280;63522;47.928;21.042;2022-10-10T07:29:33;101222.69;;;26.77;54.46
74966;BME280;63522;47.928;21.042;2022-10-10T07:31:58;101225.20;;;26.79;54.21
74966;BME280;63522;47.928;21.042;2022-10-10T07:34:24;101227.82;;;26.82;54.40
74966;BME280;63522;47.928;21.042;2022-10-10T07:36:49;101224.17;;;26.83;54.00
74966;BME280;63522;47.928;21.042;2022-10-10T07:39:33;101225.77;;;26.85;53.93
74966;BME280;63522;47.928;21.042;2022-10-10T07:41:58;101222.23;;;26.86;53.73
74966;BME280;63522;47.928;21.042;2022-10-10T07:44:24;101222.45;;;26.87;53.67
74966;BME280;63522;47.928;21.042;2022-10-10T07:46:49;101227.86;;;26.88;53.63
74966;BME280;63522;47.928;21.042;2022-10-10T07:49:15;101222.31;;;26.89;53.80
74966;BME280;63522;47.928;21.042;2022-10-10T07:51:40;101218.58;;;26.89;53.48
74966;BME280;63522;47.928;21.042;2022-10-10T07:54:06;101220.73;;;26.90;53.64
74966;BME280;63522;47.928;21.042;2022-10-10T07:56:31;101218.88;;;26.90;53.27
74966;BME280;63522;47.928;21.042;2022-10-10T07:58:57;101217.79;;;26.88;53.51
74966;BME280;63522;47.928;21.042;2022-10-10T08:01:24;101216.35;;;26.88;53.30
74966;BME280;63522;47.928;21.042;2022-10-10T08:03:49;101215.95;;;26.87;53.11
74966;BME280;63522;47.928;21.042;2022-10-10T08:06:16;101212.10;;;26.85;53.27
74966;BME280;63522;47.928;21.042;2022-10-10T08:08:43;101214.25;;;26.85;53.08
74966;BME280;63522;47.928;21.042;2022-10-10T08:11:09;101215.16;;;26.84;53.18
74966;BME280;63522;47.928;21.042;2022-10-10T08:13:36;101212.27;;;26.82;53.24
74966;BME280;63522;47.928;21.042;2022-10-10T08:16:03;101210.45;;;26.82;53.44
74966;BME280;63522;47.928;21.042;2022-10-10T08:18:29;101205.11;;;26.82;53.49
74966;BME280;63522;47.928;21.042;2022-10-10T08:21:03;101207.08;;;26.84;53.20
74966;BME280;63522;47.928;21.042;2022-10-10T08:23:30;101205.01;;;26.85;53.12
74966;BME280;63522;47.928;21.042;2022-10-10T08:26:04;101201.69;;;26.85;53.23
74966;BME280;63522;47.928;21.042;2022-10-10T08:28:31;101203.19;;;26.84;53.10
74966;BME280;63522;47.928;21.042;2022-10-10T08:30:57;101204.30;;;26.84;53.28
74966;BME280;63522;47.928;21.042;2022-10-10T08:33:27;101208.23;;;26.84;53.17
74966;BME280;63522;47.928;21.042;2022-10-10T08:35:52;101201.05;;;26.82;53.34
74966;BME280;63522;47.928;21.042;2022-10-10T08:38:18;101206.15;;;26.84;53.55
74966;BME280;63522;47.928;21.042;2022-10-10T08:40:48;101206.70;;;26.84;53.63
74966;BME280;63522;47.928;21.042;2022-10-10T08:43:22;101210.98;;;26.87;53.08
74966;BME280;63522;47.928;21.042;2022-10-10T08:45:51;101204.99;;;26.87;52.94
74966;BME280;63522;47.928;21.042;2022-10-10T08:48:23;101200.88;;;26.88;53.06
74966;BME280;63522;47.928;21.042;2022-10-10T08:50:59;101199.88;;;26.88;53.13
74966;BME280;63522;47.928;21.042;2022-10-10T08:53:34;101203.75;;;26.88;53.07
74966;BME280;63522;47.928;21.042;2022-10-10T08:56:04;101203.77;;;26.86;53.31
74966;BME280;63522;47.928;21.042;2022-10-10T08:58:52;101195.38;;;26.86;53.66
74966;BME280;63522;47.928;21.042;2022-10-10T09:01:26;101192.73;;;26.87;53.59
74966;BME280;63522;47.928;21.042;2022-10-10T09:03:56;101185.35;;;26.88;53.47
74966;BME280;63522;47.928;21.042;2022-10-10T09:16:41;101160.15;;;26.90;53.22
74966;BME280;63522;47.928;21.042;2022-10-10T09:21:50;101161.55;;;26.91;53.24
74966;BME280;63522;47.928;21.042;2022-10-10T09:24:30;101154.52;;;26.90;53.21
74966;BME280;63522;47.928;21.042;2022-10-10T09:27:03;101152.38;;;26.90;52.86
74966;BME280;63522;47.928;21.042;2022-10-10T09:29:44;101149.66;;;26.88;52.88
74966;BME280;63522;47.928;21.042;2022-10-10T09:34:56;101147.80;;;26.88;52.90
74966;BME280;63522;47.928;21.042;2022-10-10T09:37:29;101144.02;;;26.86;53.08
74966;BME280;63522;47.928;21.042;2022-10-10T09:40:02;101148.75;;;26.87;52.89
74966;BME280;63522;47.928;21.042;2022-10-10T09:42:37;101144.27;;;26.85;52.96
74966;BME280;63522;47.928;21.042;2022-10-10T09:45:13;101148.47;;;26.84;52.98
74966;BME280;63522;47.928;21.042;2022-10-10T09:47:41;101145.24;;;26.83;52.70
74966;BME280;63522;47.928;21.042;2022-10-10T09:50:11;101142.36;;;26.82;52.79
74966;BME280;63522;47.928;21.042;2022-10-10T09:52:37;101137.36;;;26.81;52.91
74966;BME280;63522;47.928;21.042;2022-10-10T09:55:25;101135.46;;;26.80;52.76
74966;BME280;63522;47.928;21.042;2022-10-10T09:57:54;101134.85;;;26.79;52.79
74966;BME280;63522;47.928;21.042;2022-10-10T10:00:32;101130.76;;;26.78;52.91
74966;BME280;63522;47.928;21.042;2022-10-10T10:03:10;101131.71;;;26.77;52.65
74966;BME280;63522;47.928;21.042;2022-10-10T10:05:37;101129.23;;;26.76;52.85
74966;BME280;63522;47.928;21.042;2022-10-10T10:08:03;101127.13;;;26.75;52.55
74966;BME280;63522;47.928;21.042;2022-10-10T10:10:33;101127.95;;;26.74;53.00
74966;BME280;63522;47.928;21.042;2022-10-10T10:12:59;101123.61;;;26.74;52.79
74966;BME280;63522;47.928;21.042;2022-10-10T10:15:27;101123.89;;;26.73;52.81
74966;BME280;63522;47.928;21.042;2022-10-10T10:18:10;101124.23;;;26.73;52.64
74966;BME280;63522;47.928;21.042;2022-10-10T10:20:38;101119.63;;;26.72;52.88
74966;BME280;63522;47.928;21.042;2022-10-10T10:23:21;101120.19;;;26.70;52.65
74966;BME280;63522;47.928;21.042;2022-10-10T10:25:56;101117.61;;;26.69;52.62
74966;BME280;63522;47.928;21.042;2022-10-10T10:28:23;101118.16;;;26.68;52.54
74966;BME280;63522;47.928;21.042;2022-10-10T10:30:52;101120.02;;;26.68;52.56
74966;BME280;63522;47.928;21.042;2022-10-10T10:33:21;101113.67;;;26.67;52.81
74966;BME280;63522;47.928;21.042;2022-10-10T10:35:59;101110.30;;;26.66;52.64
74966;BME280;63522;47.928;21.042;2022-10-10T10:41:16;101104.92;;;26.64;52.50
74966;BME280;63522;47.928;21.042;2022-10-10T10:43:49;101102.88;;;26.63;52.73
74966;BME280;63522;47.928;21.042;2022-10-10T10:49:57;101099.25;;;26.59;52.85
74966;BME280;63522;47.928;21.042;2022-10-10T11:00:58;101086.66;;;26.55;52.75
74966;BME280;63522;47.928;21.042;2022-10-10T11:09:13;101081.96;;;26.50;52.59
74966;BME280;63522;47.928;21.042;2022-10-10T11:17:18;101071.08;;;26.44;52.48
74966;BME280;63522;47.928;21.042;2022-10-10T11:20:19;101070.49;;;26.41;52.74
74966;BME280;63522;47.928;21.042;2022-10-10T11:30:40;101058.08;;;26.32;52.84
74966;BME280;63522;47.928;21.042;2022-10-10T11:33:27;101055.61;;;26.31;52.81
74966;BME280;63522;47.928;21.042;2022-10-10T11:36:25;101052.72;;;26.29;52.88
74966;BME280;63522;47.928;21.042;2022-10-10T11:39:13;101048.90;;;26.28;52.78
74966;BME280;63522;47.928;21.042;2022-10-10T11:41:57;101050.02;;;26.26;52.62
74966;BME280;63522;47.928;21.042;2022-10-10T11:47:17;101038.68;;;26.23;52.63
74966;BME280;63522;47.928;21.042;2022-10-10T11:53:01;101038.96;;;26.19;52.81
74966;BME280;63522;47.928;21.042;2022-10-10T11:58:24;101034.14;;;26.15;52.87
74966;BME280;63522;47.928;21.042;2022-10-10T12:00:55;101030.83;;;26.14;52.98
74966;BME280;63522;47.928;21.042;2022-10-10T12:03:24;101031.20;;;26.13;52.77
74966;BME280;63522;47.928;21.042;2022-10-10T12:06:02;101026.76;;;26.12;53.06
74966;BME280;63522;47.928;21.042;2022-10-10T12:08:36;101026.98;;;26.10;53.10
74966;BME280;63522;47.928;21.042;2022-10-10T12:11:16;101026.96;;;26.09;53.04
74966;BME280;63522;47.928;21.042;2022-10-10T12:13:52;101024.91;;;26.07;52.89
74966;BME280;63522;47.928;21.042;2022-10-10T12:16:21;101023.91;;;26.07;53.11
74966;BME280;63522;47.928;21.042;2022-10-10T12:19:02;101020.77;;;26.05;53.15
74966;BME280;63522;47.928;21.042;2022-10-10T12:21:30;101020.20;;;26.04;52.97
74966;BME280;63522;47.928;21.042;2022-10-10T12:26:25;101018.36;;;26.01;52.88
74966;BME280;63522;47.928;21.042;2022-10-10T12:29:10;101015.95;;;25.99;53.06
74966;BME280;63522;47.928;21.042;2022-10-10T12:31:37;101013.76;;;25.98;53.31
74966;BME280;63522;47.928;21.042;2022-10-10T12:37:20;101010.42;;;25.96;53.32
74966;BME280;63522;47.928;21.042;2022-10-10T12:48:00;101006.81;;;25.91;53.16
74966;BME280;63522;47.928;21.042;2022-10-10T12:50:28;101002.72;;;25.90;53.13
74966;BME280;63522;47.928;21.042;2022-10-10T12:53:19;100996.64;;;25.89;53.03
74966;BME280;63522;47.928;21.042;2022-10-10T12:55:46;100993.98;;;25.88;53.32
74966;BME280;63522;47.928;21.042;2022-10-10T13:00:50;100996.67;;;25.86;53.35
74966;BME280;63522;47.928;21.042;2022-10-10T13:05:47;100993.64;;;25.84;53.31
74966;BME280;63522;47.928;21.042;2022-10-10T13:08:17;100989.52;;;25.83;53.30
74966;BME280;63522;47.928;21.042;2022-10-10T13:13:26;100982.41;;;25.82;53.29
74966;BME280;63522;47.928;21.042;2022-10-10T13:15:56;100981.15;;;25.82;53.11
74966;BME280;63522;47.928;21.042;2022-10-10T13:18:50;100976.13;;;25.78;50.81
74966;BME280;63522;47.928;21.042;2022-10-10T13:21:21;100970.03;;;25.76;51.10
74966;BME280;63522;47.928;21.042;2022-10-10T13:23:49;100968.90;;;25.76;51.22
74966;BME280;63522;47.928;21.042;2022-10-10T13:28:44;100970.64;;;25.77;51.74
74966;BME280;63522;47.928;21.042;2022-10-10T13:31:12;100969.77;;;25.78;51.86
74966;BME280;63522;47.928;21.042;2022-10-10T13:33:39;100964.48;;;25.79;52.15
74966;BME280;63522;47.928;21.042;2022-10-10T13:36:07;100964.24;;;25.80;52.28
74966;BME280;63522;47.928;21.042;2022-10-10T13:38:41;100964.56;;;25.82;52.46
74966;BME280;63522;47.928;21.042;2022-10-10T13:41:06;100959.96;;;25.81;52.26
74966;BME280;63522;47.928;21.042;2022-10-10T13:43:33;100960.91;;;25.82;52.44
74966;BME280;63522;47.928;21.042;2022-10-10T13:46:00;100960.55;;;25.83;52.48
74966;BME280;63522;47.928;21.042;2022-10-10T13:48:37;100959.29;;;25.83;52.49
74966;BME280;63522;47.928;21.042;2022-10-10T13:51:11;100953.98;;;25.83;52.48
74966;BME280;63522;47.928;21.042;2022-10-10T13:53:48;100950.27;;;25.82;52.62
74966;BME280;63522;47.928;21.042;2022-10-10T13:56:26;100949.87;;;25.81;52.72
74966;BME280;63522;47.928;21.042;2022-10-10T13:59:12;100948.28;;;25.79;52.66
74966;BME280;63522;47.928;21.042;2022-10-10T14:01:41;100945.27;;;25.77;52.54
74966;BME280;63522;47.928;21.042;2022-10-10T14:04:33;100940.66;;;25.76;52.82
74966;BME280;63522;47.928;21.042;2022-10-10T14:07:09;100938.65;;;25.74;52.73
74966;BME280;63522;47.928;21.042;2022-10-10T14:09:39;100939.42;;;25.73;52.78
74966;BME280;63522;47.928;21.042;2022-10-10T14:12:14;100934.05;;;25.70;52.84
74966;BME280;63522;47.928;21.042;2022-10-10T14:14:48;100931.42;;;25.70;52.88
74966;BME280;63522;47.928;21.042;2022-10-10T14:17:14;100929.80;;;25.71;52.78
74966;BME280;63522;47.928;21.042;2022-10-10T14:19:42;100926.69;;;25.71;52.88
74966;BME280;63522;47.928;21.042;2022-10-10T14:22:07;100926.20;;;25.72;52.77
74966;BME280;63522;47.928;21.042;2022-10-10T14:24:33;100924.05;;;25.72;52.84
74966;BME280;63522;47.928;21.042;2022-10-10T14:29:43;100920.75;;;25.73;52.73
74966;BME280;63522;47.928;21.042;2022-10-10T14:32:10;100921.30;;;25.73;52.89
74966;BME280;63522;47.928;21.042;2022-10-10T14:34:36;100920.75;;;25.73;52.88
74966;BME280;63522;47.928;21.042;2022-10-10T14:37:01;100919.15;;;25.73;52.78
74966;BME280;63522;47.928;21.042;2022-10-10T14:39:27;100923.28;;;25.73;52.85
74966;BME280;63522;47.928;21.042;2022-10-10T14:41:52;100917.09;;;25.73;52.81
74966;BME280;63522;47.928;21.042;2022-10-10T14:44:17;100917.56;;;25.74;52.89
74966;BME280;63522;47.928;21.042;2022-10-10T14:46:43;100914.66;;;25.74;52.81